sensor_id;sensor_type;location;lat;lon;timestamp;temperature;humidity
216;HTU21D;70668;48.81286795;9.14184224;2023-11-22T00:00:07;7.53;104.38
216;HTU21D;70668;48.81286795;9.14184224;2023-11-22T00:02:36;7.35;103.79
216;HTU21D;70668;48.81286795;9.14184224;2023-11-22T00:05:06;7.25;105.04
216;HTU21D;70668;48.81286795;9.14184224;2023-11-22T00:07:35;7.17;106.01
216;HTU21D;70668;48.81286795;9.14184224;2023-11-22T00:10:07;7.20;105.02
216;HTU21D;70668;48.81286795;9.14184224;2023-11-22T00:12:36;7.14;104.31
216;HTU21D;70668;48.81286795;9.14184224;2023-11-22T00:15:06;7.11;102.83
216;HTU21D;70668;48.81286795;9.14184224;2023-11-22T00:17:36;7.26;102.31
216;HTU21D;70668;48.81286795;9.14184224;2023-11-22T00:20:06;7.02;104.28
216;HTU21D;70668;48.81286795;9.14184224;2023-11-22T00:22:35;6.71;102.40
216;HTU21D;70668;48.81286795;9.14184224;2023-11-22T00:25:07;6.57;104.37
216;HTU21D;70668;48.81286795;9.14184224;2023-11-22T00:27:39;6.30;104.23
216;HTU21D;70668;48.81286795;9.14184224;2023-11-22T00:30:08;6.29;104.12
216;HTU21D;70668;48.81286795;9.14184224;2023-11-22T00:32:37;6.55;104.22
216;HTU21D;70668;48.81286795;9.14184224;2023-11-22T00:35:07;6.54;103.16
216;HTU21D;70668;48.81286795;9.14184224;2023-11-22T00:37:36;6.61;103.21
216;HTU21D;70668;48.81286795;9.14184224;2023-11-22T00:40:08;6.45;104.53
216;HTU21D;70668;48.81286795;9.14184224;2023-11-22T00:42:39;6.39;103.74
216;HTU21D;70668;48.81286795;9.14184224;2023-11-22T00:45:09;6.55;103.85
216;HTU21D;70668;48.81286795;9.14184224;2023-11-22T00:47:39;6.60;100.96
216;HTU21D;70668;48.81286795;9.14184224;2023-11-22T00:50:09;6.52;99.05
216;HTU21D;70668;48.81286795;9.14184224;2023-11-22T00:52:38;6.43;102.78
216;HTU21D;70668;48.81286795;9.14184224;2023-11-22T00:55:13;6.25;100.13
216;HTU21D;70668;48.81286795;9.14184224;2023-11-22T00:57:41;6.24;103.41
216;HTU21D;70668;48.81286795;9.14184224;2023-11-22T01:00:10;6.27;103.50
216;HTU21D;70668;48.81286795;9.14184224;2023-11-22T01:02:41;6.20;99.74
216;HTU21D;70668;48.81286795;9.14184224;2023-11-22T01:05:09;6.44;101.73
216;HTU21D;70668;48.81286795;9.14184224;2023-11-22T01:07:41;6.51;100.76
216;HTU21D;70668;48.81286795;9.14184224;2023-11-22T01:10:13;6.20;101.23
216;HTU21D;70668;48.81286795;9.14184224;2023-11-22T01:12:41;6.11;103.31
216;HTU21D;70668;48.81286795;9.14184224;2023-11-22T01:15:10;6.02;103.15
216;HTU21D;70668;48.81286795;9.14184224;2023-11-22T01:17:38;5.65;103.41
216;HTU21D;70668;48.81286795;9.14184224;2023-11-22T01:20:08;6.04;103.10
216;HTU21D;70668;48.81286795;9.14184224;2023-11-22T01:22:39;6.06;100.82
216;HTU21D;70668;48.81286795;9.14184224;2023-11-22T01:25:08;6.28;100.64
216;HTU21D;70668;48.81286795;9.14184224;2023-11-22T01:27:39;6.43;100.48
216;HTU21D;70668;48.81286795;9.14184224;2023-11-22T01:30:08;5.98;99.29
216;HTU21D;70668;48.81286795;9.14184224;2023-11-22T01:32:37;5.87;99.66
216;HTU21D;70668;48.81286795;9.14184224;2023-11-22T01:35:06;6.04;101.58
216;HTU21D;70668;48.81286795;9.14184224;2023-11-22T01:37:35;5.98;102.02
216;HTU21D;70668;48.81286795;9.14184224;2023-11-22T01:40:05;5.71;99.75
216;HTU21D;70668;48.81286795;9.14184224;2023-11-22T01:42:34;5.87;98.70
216;HTU21D;70668;48.81286795;9.14184224;2023-11-22T01:45:08;5.61;102.38
216;HTU21D;70668;48.81286795;9.14184224;2023-11-22T01:47:38;5.68;99.29
216;HTU21D;70668;48.81286795;9.14184224;2023-11-22T01:50:08;5.53;97.58
216;HTU21D;70668;48.81286795;9.14184224;2023-11-22T01:52:38;5.55;98.72
216;HTU21D;70668;48.81286795;9.14184224;2023-11-22T01:55:09;5.57;101.28
216;HTU21D;70668;48.81286795;9.14184224;2023-11-22T01:57:37;5.53;98.54
216;HTU21D;70668;48.81286795;9.14184224;2023-11-22T02:00:10;5.42;99.62
216;HTU21D;70668;48.81286795;9.14184224;2023-11-22T02:02:41;5.26;98.23
216;HTU21D;70668;48.81286795;9.14184224;2023-11-22T02:05:09;5.25;102.59
216;HTU21D;70668;48.81286795;9.14184224;2023-11-22T02:07:38;4.98;97.75
216;HTU21D;70668;48.81286795;9.14184224;2023-11-22T02:10:08;5.33;101.06
216;HTU21D;70668;48.81286795;9.14184224;2023-11-22T02:12:36;5.36;97.08
216;HTU21D;70668;48.81286795;9.14184224;2023-11-22T02:15:09;5.70;93.65
216;HTU21D;70668;48.81286795;9.14184224;2023-11-22T02:17:38;5.15;97.69
216;HTU21D;70668;48.81286795;9.14184224;2023-11-22T02:20:07;5.26;95.33
216;HTU21D;70668;48.81286795;9.14184224;2023-11-22T02:22:43;5.33;95.28
216;HTU21D;70668;48.81286795;9.14184224;2023-11-22T02:25:14;5.25;92.52
216;HTU21D;70668;48.81286795;9.14184224;2023-11-22T02:27:43;5.33;95.88
216;HTU21D;70668;48.81286795;9.14184224;2023-11-22T02:30:12;5.21;96.73
216;HTU21D;70668;48.81286795;9.14184224;2023-11-22T02:32:41;5.13;98.28
216;HTU21D;70668;48.81286795;9.14184224;2023-11-22T02:35:09;5.39;91.43
216;HTU21D;70668;48.81286795;9.14184224;2023-11-22T02:37:38;5.05;93.12
216;HTU21D;70668;48.81286795;9.14184224;2023-11-22T02:40:17;4.93;97.74
216;HTU21D;70668;48.81286795;9.14184224;2023-11-22T02:42:46;5.19;96.46
216;HTU21D;70668;48.81286795;9.14184224;2023-11-22T02:45:15;5.11;91.60
216;HTU21D;70668;48.81286795;9.14184224;2023-11-22T02:47:44;4.72;91.44
216;HTU21D;70668;48.81286795;9.14184224;2023-11-22T02:50:13;5.02;97.03
216;HTU21D;70668;48.81286795;9.14184224;2023-11-22T02:52:42;4.82;91.15
216;HTU21D;70668;48.81286795;9.14184224;2023-11-22T02:55:13;5.06;96.33
216;HTU21D;70668;48.81286795;9.14184224;2023-11-22T02:57:42;4.64;99.38
216;HTU21D;70668;48.81286795;9.14184224;2023-11-22T03:00:11;4.87;94.72
216;HTU21D;70668;48.81286795;9.14184224;2023-11-22T03:02:41;4.98;99.16
216;HTU21D;70668;48.81286795;9.14184224;2023-11-22T03:05:11;4.77;93.27
216;HTU21D;70668;48.81286795;9.14184224;2023-11-22T03:07:41;4.54;98.50
216;HTU21D;70668;48.81286795;9.14184224;2023-11-22T03:10:09;4.67;99.23
216;HTU21D;70668;48.81286795;9.14184224;2023-11-22T03:12:50;4.83;97.32
216;HTU21D;70668;48.81286795;9.14184224;2023-11-22T03:15:19;4.61;93.48
216;HTU21D;70668;48.81286795;9.14184224;2023-11-22T03:17:48;4.54;99.96
216;HTU21D;70668;48.81286795;9.14184224;2023-11-22T03:20:17;4.78;92.59
216;HTU21D;70668;48.81286795;9.14184224;2023-11-22T03:22:45;4.77;100.45
216;HTU21D;70668;48.81286795;9.14184224;2023-11-22T03:25:16;4.74;92.05
216;HTU21D;70668;48.81286795;9.14184224;2023-11-22T03:27:45;4.86;94.05
216;HTU21D;70668;48.81286795;9.14184224;2023-11-22T03:30:17;4.83;97.15
216;HTU21D;70668;48.81286795;9.14184224;2023-11-22T03:32:47;5.02;94.47
216;HTU21D;70668;48.81286795;9.14184224;2023-11-22T03:35:17;4.67;98.10
216;HTU21D;70668;48.81286795;9.14184224;2023-11-22T03:37:47;4.65;99.07
216;HTU21D;70668;48.81286795;9.14184224;2023-11-22T03:40:16;4.79;98.61
216;HTU21D;70668;48.81286795;9.14184224;2023-11-22T03:42:45;4.74;100.67
216;HTU21D;70668;48.81286795;9.14184224;2023-11-22T03:45:17;4.83;95.00
216;HTU21D;70668;48.81286795;9.14184224;2023-11-22T03:47:45;4.74;96.52
216;HTU21D;70668;48.81286795;9.14184224;2023-11-22T03:50:14;4.64;94.08
216;HTU21D;70668;48.81286795;9.14184224;2023-11-22T03:52:42;4.83;97.42
216;HTU21D;70668;48.81286795;9.14184224;2023-11-22T03:55:12;4.75;98.51
216;HTU21D;70668;48.81286795;9.14184224;2023-11-22T03:57:41;4.61;99.15
216;HTU21D;70668;48.81286795;9.14184224;2023-11-22T04:00:11;4.50;98.08
216;HTU21D;70668;48.81286795;9.14184224;2023-11-22T04:02:42;4.77;92.24
216;HTU21D;70668;48.81286795;9.14184224;2023-11-22T04:05:10;4.62;95.07
216;HTU21D;70668;48.81286795;9.14184224;2023-11-22T04:07:39;4.87;94.94
216;HTU21D;70668;48.81286795;9.14184224;2023-11-22T04:10:08;5.01;98.93
216;HTU21D;70668;48.81286795;9.14184224;2023-11-22T04:12:37;5.21;93.92
216;HTU21D;70668;48.81286795;9.14184224;2023-11-22T04:15:07;5.11;94.57
216;HTU21D;70668;48.81286795;9.14184224;2023-11-22T04:17:36;4.83;98.36
216;HTU21D;70668;48.81286795;9.14184224;2023-11-22T04:20:09;4.97;91.82
216;HTU21D;70668;48.81286795;9.14184224;2023-11-22T04:22:40;4.71;92.42
216;HTU21D;70668;48.81286795;9.14184224;2023-11-22T04:25:11;4.87;96.60
216;HTU21D;70668;48.81286795;9.14184224;2023-11-22T04:27:39;4.68;96.68
216;HTU21D;70668;48.81286795;9.14184224;2023-11-22T04:30:09;4.90;99.83
216;HTU21D;70668;48.81286795;9.14184224;2023-11-22T04:32:39;4.92;97.45
216;HTU21D;70668;48.81286795;9.14184224;2023-11-22T04:35:09;4.90;93.14
216;HTU21D;70668;48.81286795;9.14184224;2023-11-22T04:37:38;4.93;91.50
216;HTU21D;70668;48.81286795;9.14184224;2023-11-22T04:40:09;4.83;91.44
216;HTU21D;70668;48.81286795;9.14184224;2023-11-22T04:42:40;4.73;91.34
216;HTU21D;70668;48.81286795;9.14184224;2023-11-22T04:45:09;4.73;92.17
216;HTU21D;70668;48.81286795;9.14184224;2023-11-22T04:47:38;4.79;90.40
216;HTU21D;70668;48.81286795;9.14184224;2023-11-22T04:50:10;4.75;97.34
216;HTU21D;70668;48.81286795;9.14184224;2023-11-22T04:52:39;4.86;94.41
216;HTU21D;70668;48.81286795;9.14184224;2023-11-22T04:55:08;4.50;90.51
216;HTU21D;70668;48.81286795;9.14184224;2023-11-22T04:57:37;4.98;92.43
216;HTU21D;70668;48.81286795;9.14184224;2023-11-22T05:00:07;4.48;91.67
216;HTU21D;70668;48.81286795;9.14184224;2023-11-22T05:02:36;4.78;89.67
216;HTU21D;70668;48.81286795;9.14184224;2023-11-22T05:05:08;4.45;91.68
216;HTU21D;70668;48.81286795;9.14184224;2023-11-22T05:07:38;4.36;92.24
216;HTU21D;70668;48.81286795;9.14184224;2023-11-22T05:10:07;4.42;96.62
216;HTU21D;70668;48.81286795;9.14184224;2023-11-22T05:12:36;4.35;99.06
216;HTU21D;70668;48.81286795;9.14184224;2023-11-22T05:15:06;4.60;91.69
216;HTU21D;70668;48.81286795;9.14184224;2023-11-22T05:17:35;4.18;96.10
216;HTU21D;70668;48.81286795;9.14184224;2023-11-22T05:20:04;4.79;92.37
216;HTU21D;70668;48.81286795;9.14184224;2023-11-22T05:22:37;4.52;97.34
216;HTU21D;70668;48.81286795;9.14184224;2023-11-22T05:25:06;4.50;96.43
216;HTU21D;70668;48.81286795;9.14184224;2023-11-22T05:27:35;4.37;93.10
216;HTU21D;70668;48.81286795;9.14184224;2023-11-22T05:30:04;4.01;94.17
216;HTU21D;70668;48.81286795;9.14184224;2023-11-22T05:32:35;4.44;95.59
216;HTU21D;70668;48.81286795;9.14184224;2023-11-22T05:35:04;4.46;95.97
216;HTU21D;70668;48.81286795;9.14184224;2023-11-22T05:37:38;4.41;96.94
216;HTU21D;70668;48.81286795;9.14184224;2023-11-22T05:40:08;4.23;94.16
216;HTU21D;70668;48.81286795;9.14184224;2023-11-22T05:42:37;4.58;93.69
216;HTU21D;70668;48.81286795;9.14184224;2023-11-22T05:45:08;4.68;95.01
216;HTU21D;70668;48.81286795;9.14184224;2023-11-22T05:47:36;4.45;94.66
216;HTU21D;70668;48.81286795;9.14184224;2023-11-22T05:50:07;3.89;98.66
216;HTU21D;70668;48.81286795;9.14184224;2023-11-22T05:52:38;4.30;97.89
216;HTU21D;70668;48.81286795;9.14184224;2023-11-22T05:55:08;4.18;98.03
216;HTU21D;70668;48.81286795;9.14184224;2023-11-22T05:57:39;4.38;97.50
216;HTU21D;70668;48.81286795;9.14184224;2023-11-22T06:00:09;3.94;96.39
216;HTU21D;70668;48.81286795;9.14184224;2023-11-22T06:02:38;4.27;95.81
216;HTU21D;70668;48.81286795;9.14184224;2023-11-22T06:05:07;3.97;97.88
216;HTU21D;70668;48.81286795;9.14184224;2023-11-22T06:07:39;4.14;94.26
216;HTU21D;70668;48.81286795;9.14184224;2023-11-22T06:10:08;4.19;94.80
216;HTU21D;70668;48.81286795;9.14184224;2023-11-22T06:12:38;4.39;96.16
216;HTU21D;70668;48.81286795;9.14184224;2023-11-22T06:15:08;4.44;94.46
216;HTU21D;70668;48.81286795;9.14184224;2023-11-22T06:17:37;4.52;95.03
216;HTU21D;70668;48.81286795;9.14184224;2023-11-22T06:20:07;4.28;95.71
216;HTU21D;70668;48.81286795;9.14184224;2023-11-22T06:22:39;4.00;98.03
216;HTU21D;70668;48.81286795;9.14184224;2023-11-22T06:25:08;4.38;97.42
216;HTU21D;70668;48.81286795;9.14184224;2023-11-22T06:27:37;4.53;95.95
216;HTU21D;70668;48.81286795;9.14184224;2023-11-22T06:30:06;4.31;93.14
216;HTU21D;70668;48.81286795;9.14184224;2023-11-22T06:32:35;4.31;94.88
216;HTU21D;70668;48.81286795;9.14184224;2023-11-22T06:35:05;4.22;94.01
216;HTU21D;70668;48.81286795;9.14184224;2023-11-22T06:37:34;4.12;95.72
216;HTU21D;70668;48.81286795;9.14184224;2023-11-22T06:40:06;4.29;91.69
216;HTU21D;70668;48.81286795;9.14184224;2023-11-22T06:42:38;4.34;95.04
216;HTU21D;70668;48.81286795;9.14184224;2023-11-22T06:45:08;4.14;92.34
216;HTU21D;70668;48.81286795;9.14184224;2023-11-22T06:47:38;3.90;92.28
216;HTU21D;70668;48.81286795;9.14184224;2023-11-22T06:50:07;4.10;90.82
216;HTU21D;70668;48.81286795;9.14184224;2023-11-22T06:52:37;3.90;87.32
216;HTU21D;70668;48.81286795;9.14184224;2023-11-22T06:55:10;4.08;88.87
216;HTU21D;70668;48.81286795;9.14184224;2023-11-22T06:57:38;3.98;92.86
216;HTU21D;70668;48.81286795;9.14184224;2023-11-22T07:00:08;3.80;90.00
216;HTU21D;70668;48.81286795;9.14184224;2023-11-22T07:02:38;3.93;90.88
216;HTU21D;70668;48.81286795;9.14184224;2023-11-22T07:05:07;3.92;86.61
216;HTU21D;70668;48.81286795;9.14184224;2023-11-22T07:07:37;3.67;85.44
216;HTU21D;70668;48.81286795;9.14184224;2023-11-22T07:10:09;3.95;85.03
216;HTU21D;70668;48.81286795;9.14184224;2023-11-22T07:12:39;3.83;87.46
216;HTU21D;70668;48.81286795;9.14184224;2023-11-22T07:15:09;3.77;89.03
216;HTU21D;70668;48.81286795;9.14184224;2023-11-22T07:17:39;3.65;86.48
216;HTU21D;70668;48.81286795;9.14184224;2023-11-22T07:20:08;3.74;89.15
216;HTU21D;70668;48.81286795;9.14184224;2023-11-22T07:22:41;3.59;85.47
216;HTU21D;70668;48.81286795;9.14184224;2023-11-22T07:25:12;3.97;88.22
216;HTU21D;70668;48.81286795;9.14184224;2023-11-22T07:27:46;3.56;89.16
216;HTU21D;70668;48.81286795;9.14184224;2023-11-22T07:30:15;3.85;89.41
216;HTU21D;70668;48.81286795;9.14184224;2023-11-22T07:32:45;4.09;86.00
216;HTU21D;70668;48.81286795;9.14184224;2023-11-22T07:35:14;3.86;90.63
216;HTU21D;70668;48.81286795;9.14184224;2023-11-22T07:37:42;3.98;89.41
216;HTU21D;70668;48.81286795;9.14184224;2023-11-22T07:40:14;3.89;87.61
216;HTU21D;70668;48.81286795;9.14184224;2023-11-22T07:42:45;3.43;90.26
216;HTU21D;70668;48.81286795;9.14184224;2023-11-22T07:45:13;3.42;91.26
216;HTU21D;70668;48.81286795;9.14184224;2023-11-22T07:47:42;3.72;85.04
216;HTU21D;70668;48.81286795;9.14184224;2023-11-22T07:50:12;3.65;88.10
216;HTU21D;70668;48.81286795;9.14184224;2023-11-22T07:52:41;3.68;89.19
216;HTU21D;70668;48.81286795;9.14184224;2023-11-22T07:55:09;3.61;88.64
216;HTU21D;70668;48.81286795;9.14184224;2023-11-22T07:57:41;3.28;86.16
216;HTU21D;70668;48.81286795;9.14184224;2023-11-22T08:00:11;3.61;85.16
216;HTU21D;70668;48.81286795;9.14184224;2023-11-22T08:02:39;3.44;89.10
216;HTU21D;70668;48.81286795;9.14184224;2023-11-22T08:05:08;3.79;87.29
216;HTU21D;70668;48.81286795;9.14184224;2023-11-22T08:07:40;3.62;81.79
216;HTU21D;70668;48.81286795;9.14184224;2023-11-22T08:10:12;3.49;87.72
216;HTU21D;70668;48.81286795;9.14184224;2023-11-22T08:12:48;3.99;85.57
216;HTU21D;70668;48.81286795;9.14184224;2023-11-22T08:15:17;4.01;82.65
216;HTU21D;70668;48.81286795;9.14184224;2023-11-22T08:17:47;3.76;86.06
216;HTU21D;70668;48.81286795;9.14184224;2023-11-22T08:20:16;3.98;84.42
216;HTU21D;70668;48.81286795;9.14184224;2023-11-22T08:22:45;3.78;80.50
216;HTU21D;70668;48.81286795;9.14184224;2023-11-22T08:25:15;3.79;79.08
216;HTU21D;70668;48.81286795;9.14184224;2023-11-22T08:27:44;3.69;82.75
216;HTU21D;70668;48.81286795;9.14184224;2023-11-22T08:30:16;3.54;84.83
216;HTU21D;70668;48.81286795;9.14184224;2023-11-22T08:32:45;3.71;83.63
216;HTU21D;70668;48.81286795;9.14184224;2023-11-22T08:35:19;3.54;80.17
216;HTU21D;70668;48.81286795;9.14184224;2023-11-22T08:37:48;3.78;86.28
216;HTU21D;70668;48.81286795;9.14184224;2023-11-22T08:40:17;3.67;82.59
216;HTU21D;70668;48.81286795;9.14184224;2023-11-22T08:42:46;3.47;79.72
216;HTU21D;70668;48.81286795;9.14184224;2023-11-22T08:45:17;3.06;81.61
216;HTU21D;70668;48.81286795;9.14184224;2023-11-22T08:47:45;3.39;83.07
216;HTU21D;70668;48.81286795;9.14184224;2023-11-22T08:50:15;3.50;81.72
216;HTU21D;70668;48.81286795;9.14184224;2023-11-22T08:52:45;3.67;79.85
216;HTU21D;70668;48.81286795;9.14184224;2023-11-22T08:55:14;3.23;85.19
216;HTU21D;70668;48.81286795;9.14184224;2023-11-22T08:57:42;3.48;80.63
216;HTU21D;70668;48.81286795;9.14184224;2023-11-22T09:00:12;3.35;81.46
216;HTU21D;70668;48.81286795;9.14184224;2023-11-22T09:02:43;2.98;82.75
216;HTU21D;70668;48.81286795;9.14184224;2023-11-22T09:05:13;2.95;82.59
216;HTU21D;70668;48.81286795;9.14184224;2023-11-22T09:07:42;3.35;85.27
216;HTU21D;70668;48.81286795;9.14184224;2023-11-22T09:10:12;3.59;85.06
216;HTU21D;70668;48.81286795;9.14184224;2023-11-22T09:12:42;3.28;87.18
216;HTU21D;70668;48.81286795;9.14184224;2023-11-22T09:15:12;3.58;82.81
216;HTU21D;70668;48.81286795;9.14184224;2023-11-22T09:17:46;3.67;80.33
216;HTU21D;70668;48.81286795;9.14184224;2023-11-22T09:20:16;3.56;81.07
216;HTU21D;70668;48.81286795;9.14184224;2023-11-22T09:22:46;3.23;79.88
216;HTU21D;70668;48.81286795;9.14184224;2023-11-22T09:25:16;3.52;81.43
216;HTU21D;70668;48.81286795;9.14184224;2023-11-22T09:27:45;3.98;82.78
216;HTU21D;70668;48.81286795;9.14184224;2023-11-22T09:30:19;3.85;83.26
216;HTU21D;70668;48.81286795;9.14184224;2023-11-22T09:33:01;3.26;84.32
216;HTU21D;70668;48.81286795;9.14184224;2023-11-22T09:35:30;4.08;81.94
216;HTU21D;70668;48.81286795;9.14184224;2023-11-22T09:37:59;3.70;81.23
216;HTU21D;70668;48.81286795;9.14184224;2023-11-22T09:40:28;3.48;83.81
216;HTU21D;70668;48.81286795;9.14184224;2023-11-22T09:42:57;3.40;80.70
216;HTU21D;70668;48.81286795;9.14184224;2023-11-22T09:45:29;3.31;82.38
216;HTU21D;70668;48.81286795;9.14184224;2023-11-22T09:48:02;3.86;82.44
216;HTU21D;70668;48.81286795;9.14184224;2023-11-22T09:50:38;3.83;81.68
216;HTU21D;70668;48.81286795;9.14184224;2023-11-22T09:53:11;3.67;82.53
216;HTU21D;70668;48.81286795;9.14184224;2023-11-22T09:55:41;3.38;82.00
216;HTU21D;70668;48.81286795;9.14184224;2023-11-22T09:58:12;3.69;83.64
216;HTU21D;70668;48.81286795;9.14184224;2023-11-22T10:00:41;3.46;83.68
216;HTU21D;70668;48.81286795;9.14184224;2023-11-22T10:03:13;3.20;82.35
216;HTU21D;70668;48.81286795;9.14184224;2023-11-22T10:05:43;3.49;81.33
216;HTU21D;70668;48.81286795;9.14184224;2023-11-22T10:08:11;3.84;81.32
216;HTU21D;70668;48.81286795;9.14184224;2023-11-22T10:10:42;3.71;81.20
216;HTU21D;70668;48.81286795;9.14184224;2023-11-22T10:13:13;3.50;82.12
216;HTU21D;70668;48.81286795;9.14184224;2023-11-22T10:15:42;3.76;80.66
216;HTU21D;70668;48.81286795;9.14184224;2023-11-22T10:18:13;3.46;82.03
216;HTU21D;70668;48.81286795;9.14184224;2023-11-22T10:20:44;3.73;84.03
216;HTU21D;70668;48.81286795;9.14184224;2023-11-22T10:23:13;3.89;79.30
216;HTU21D;70668;48.81286795;9.14184224;2023-11-22T10:25:44;3.91;80.20
216;HTU21D;70668;48.81286795;9.14184224;2023-11-22T10:28:13;3.62;83.28
216;HTU21D;70668;48.81286795;9.14184224;2023-11-22T10:30:39;3.52;87.21
216;HTU21D;70668;48.81286795;9.14184224;2023-11-22T10:33:09;3.27;86.54
216;HTU21D;70668;48.81286795;9.14184224;2023-11-22T10:35:42;3.65;83.68
216;HTU21D;70668;48.81286795;9.14184224;2023-11-22T10:38:13;3.72;80.55
216;HTU21D;70668;48.81286795;9.14184224;2023-11-22T10:40:41;3.99;82.63
216;HTU21D;70668;48.81286795;9.14184224;2023-11-22T10:43:11;3.79;80.31
216;HTU21D;70668;48.81286795;9.14184224;2023-11-22T10:45:41;3.78;81.42
216;HTU21D;70668;48.81286795;9.14184224;2023-11-22T10:48:13;3.77;83.42
216;HTU21D;70668;48.81286795;9.14184224;2023-11-22T10:50:45;3.64;85.26
216;HTU21D;70668;48.81286795;9.14184224;2023-11-22T10:53:16;4.26;78.96
216;HTU21D;70668;48.81286795;9.14184224;2023-11-22T10:55:46;3.70;79.56
216;HTU21D;70668;48.81286795;9.14184224;2023-11-22T10:58:16;4.02;79.09
216;HTU21D;70668;48.81286795;9.14184224;2023-11-22T11:00:47;3.69;80.71
216;HTU21D;70668;48.81286795;9.14184224;2023-11-22T11:03:18;3.98;79.30
216;HTU21D;70668;48.81286795;9.14184224;2023-11-22T11:05:54;4.27;78.27
216;HTU21D;70668;48.81286795;9.14184224;2023-11-22T11:08:25;3.88;79.78
216;HTU21D;70668;48.81286795;9.14184224;2023-11-22T11:10:54;3.78;82.18
216;HTU21D;70668;48.81286795;9.14184224;2023-11-22T11:13:24;4.05;78.45
216;HTU21D;70668;48.81286795;9.14184224;2023-11-22T11:15:53;4.18;78.92
216;HTU21D;70668;48.81286795;9.14184224;2023-11-22T11:18:23;4.37;79.44
216;HTU21D;70668;48.81286795;9.14184224;2023-11-22T11:20:57;4.46;83.54
216;HTU21D;70668;48.81286795;9.14184224;2023-11-22T11:23:27;3.86;83.04
216;HTU21D;70668;48.81286795;9.14184224;2023-11-22T11:25:58;4.26;82.14
216;HTU21D;70668;48.81286795;9.14184224;2023-11-22T11:28:42;3.94;81.59
216;HTU21D;70668;48.81286795;9.14184224;2023-11-22T11:31:11;4.20;80.61
216;HTU21D;70668;48.81286795;9.14184224;2023-11-22T11:33:55;4.16;80.16
216;HTU21D;70668;48.81286795;9.14184224;2023-11-22T11:36:28;4.02;81.75
216;HTU21D;70668;48.81286795;9.14184224;2023-11-22T11:38:58;4.08;79.74
216;HTU21D;70668;48.81286795;9.14184224;2023-11-22T11:41:32;4.23;81.36
216;HTU21D;70668;48.81286795;9.14184224;2023-11-22T11:44:03;3.86;82.31
216;HTU21D;70668;48.81286795;9.14184224;2023-11-22T11:46:36;3.64;83.36
216;HTU21D;70668;48.81286795;9.14184224;2023-11-22T11:49:07;3.58;83.25
216;HTU21D;70668;48.81286795;9.14184224;2023-11-22T11:51:38;4.05;81.67
216;HTU21D;70668;48.81286795;9.14184224;2023-11-22T11:54:08;3.89;81.91
216;HTU21D;70668;48.81286795;9.14184224;2023-11-22T11:56:37;4.39;82.53
216;HTU21D;70668;48.81286795;9.14184224;2023-11-22T11:59:06;3.84;80.03
216;HTU21D;70668;48.81286795;9.14184224;2023-11-22T12:01:35;4.10;81.59
216;HTU21D;70668;48.81286795;9.14184224;2023-11-22T12:04:04;3.59;81.96
216;HTU21D;70668;48.81286795;9.14184224;2023-11-22T12:06:33;3.95;82.81
216;HTU21D;70668;48.81286795;9.14184224;2023-11-22T12:09:07;3.95;80.10
216;HTU21D;70668;48.81286795;9.14184224;2023-11-22T12:11:36;3.80;81.29
216;HTU21D;70668;48.81286795;9.14184224;2023-11-22T12:14:04;4.01;79.86
216;HTU21D;70668;48.81286795;9.14184224;2023-11-22T12:16:34;4.02;80.79
216;HTU21D;70668;48.81286795;9.14184224;2023-11-22T12:19:04;3.79;82.48
216;HTU21D;70668;48.81286795;9.14184224;2023-11-22T12:21:33;3.95;81.71
216;HTU21D;70668;48.81286795;9.14184224;2023-11-22T12:24:02;3.64;80.98
216;HTU21D;70668;48.81286795;9.14184224;2023-11-22T12:26:35;3.95;82.92
216;HTU21D;70668;48.81286795;9.14184224;2023-11-22T12:29:05;3.87;81.49
216;HTU21D;70668;48.81286795;9.14184224;2023-11-22T12:31:35;3.59;80.79
216;HTU21D;70668;48.81286795;9.14184224;2023-11-22T12:34:03;3.73;81.69
216;HTU21D;70668;48.81286795;9.14184224;2023-11-22T12:36:32;3.73;82.19
216;HTU21D;70668;48.81286795;9.14184224;2023-11-22T12:39:01;3.94;83.35
216;HTU21D;70668;48.81286795;9.14184224;2023-11-22T12:41:30;3.93;83.32
216;HTU21D;70668;48.81286795;9.14184224;2023-11-22T12:44:05;4.00;78.68
216;HTU21D;70668;48.81286795;9.14184224;2023-11-22T12:46:47;3.77;80.40
216;HTU21D;70668;48.81286795;9.14184224;2023-11-22T12:49:21;3.60;80.08
216;HTU21D;70668;48.81286795;9.14184224;2023-11-22T12:51:50;3.95;80.74
216;HTU21D;70668;48.81286795;9.14184224;2023-11-22T12:54:19;3.70;79.57
216;HTU21D;70668;48.81286795;9.14184224;2023-11-22T12:56:49;3.59;80.20
216;HTU21D;70668;48.81286795;9.14184224;2023-11-22T12:59:22;3.74;81.64
216;HTU21D;70668;48.81286795;9.14184224;2023-11-22T13:01:53;3.77;80.32
216;HTU21D;70668;48.81286795;9.14184224;2023-11-22T13:04:23;3.62;80.84
216;HTU21D;70668;48.81286795;9.14184224;2023-11-22T13:06:51;3.95;84.44
216;HTU21D;70668;48.81286795;9.14184224;2023-11-22T13:09:20;4.06;81.10
216;HTU21D;70668;48.81286795;9.14184224;2023-11-22T13:11:48;3.92;79.75
216;HTU21D;70668;48.81286795;9.14184224;2023-11-22T13:14:17;3.95;78.59
216;HTU21D;70668;48.81286795;9.14184224;2023-11-22T13:16:48;4.05;80.04
216;HTU21D;70668;48.81286795;9.14184224;2023-11-22T13:19:17;3.87;79.90
216;HTU21D;70668;48.81286795;9.14184224;2023-11-22T13:21:45;3.92;80.96
216;HTU21D;70668;48.81286795;9.14184224;2023-11-22T13:24:15;3.79;78.92
216;HTU21D;70668;48.81286795;9.14184224;2023-11-22T13:26:43;3.90;80.68
216;HTU21D;70668;48.81286795;9.14184224;2023-11-22T13:29:12;3.79;79.75
216;HTU21D;70668;48.81286795;9.14184224;2023-11-22T13:31:40;4.09;78.87
216;HTU21D;70668;48.81286795;9.14184224;2023-11-22T13:34:11;4.45;77.72
216;HTU21D;70668;48.81286795;9.14184224;2023-11-22T13:36:40;4.15;79.62
216;HTU21D;70668;48.81286795;9.14184224;2023-11-22T13:39:09;3.89;78.25
216;HTU21D;70668;48.81286795;9.14184224;2023-11-22T13:41:40;3.99;77.70
216;HTU21D;70668;48.81286795;9.14184224;2023-11-22T13:44:09;3.97;76.71
216;HTU21D;70668;48.81286795;9.14184224;2023-11-22T13:46:39;4.36;80.86
216;HTU21D;70668;48.81286795;9.14184224;2023-11-22T13:49:07;4.10;83.08
216;HTU21D;70668;48.81286795;9.14184224;2023-11-22T13:51:39;4.19;81.74
216;HTU21D;70668;48.81286795;9.14184224;2023-11-22T13:54:07;4.24;77.12
216;HTU21D;70668;48.81286795;9.14184224;2023-11-22T13:56:39;4.02;78.23
216;HTU21D;70668;48.81286795;9.14184224;2023-11-22T13:59:08;4.31;74.60